Time;durP1;ratioP1;P1;durP2;ratioP2;P2;SDS_P1;SDS_P2;PMS_P1;PMS_P2;Temp;Humidity;BMP_temperature;BMP_pressure;BME280_temperature;BME280_humidity;BME280_pressure;Samples;Min_cycle;Max_cycle;Signal;HPM_P1;HPM_P2
2022/08/25 05:58:53;;;;;;;;;13.00;13.00;;;;;23.55;54.60;101108.16;5061666;27;45551;-79
2022/08/25 06:04:09;;;;;;;;;12.33;12.33;;;;;23.72;54.17;101105.53;5047604;28;45518;-77
2022/08/25 06:06:35;;;;;;;;;12.33;12.33;;;;;23.88;54.12;101112.91;5042489;28;45452;-77
2022/08/25 06:09:01;;;;;;;;;16.67;15.33;;;;;24.03;53.90;101111.25;5037993;28;46194;-78
2022/08/25 06:11:26;;;;;;;;;13.00;13.00;;;;;24.18;53.37;101107.97;5049068;28;45589;-86
2022/08/25 06:13:52;;;;;;;;;17.00;14.00;;;;;24.36;52.75;101104.28;5051991;28;45403;-81
2022/08/25 06:16:17;;;;;;;;;12.67;12.67;;;;;24.55;53.87;101097.72;5054709;28;45465;-82
2022/08/25 06:18:42;;;;;;;;;10.00;10.00;;;;;24.81;54.13;101102.16;5046880;28;46453;-78
2022/08/25 06:21:11;;;;;;;;;10.33;10.33;;;;;25.03;53.67;101103.38;5039890;28;45488;-76
2022/08/25 06:23:37;;;;;;;;;10.00;10.00;;;;;25.22;52.58;101099.47;5051183;28;45562;-77
2022/08/25 06:26:02;;;;;;;;;11.00;11.00;;;;;25.43;52.07;101097.22;5051570;28;45492;-76
2022/08/25 06:28:28;;;;;;;;;12.33;10.67;;;;;25.63;51.21;101097.72;5051442;28;46699;-80
2022/08/25 06:30:58;;;;;;;;;11.33;11.00;;;;;25.79;50.00;101094.94;5046461;28;45529;-78
2022/08/25 06:33:24;;;;;;;;;13.00;13.00;;;;;25.92;49.64;101101.72;5051434;28;45479;-77
2022/08/25 06:35:53;;;;;;;;;12.00;12.00;;;;;26.04;49.68;101100.28;5047232;28;45350;-78
2022/08/25 06:38:19;;;;;;;;;9.00;9.00;;;;;26.14;48.72;101112.81;5050420;28;46421;-79
2022/08/25 06:40:46;;;;;;;;;10.33;10.33;;;;;26.24;49.14;101102.56;5050312;28;45310;-78
2022/08/25 06:43:12;;;;;;;;;11.67;11.33;;;;;26.31;48.88;101100.88;5051618;28;45931;-79
2022/08/25 06:45:37;;;;;;;;;10.33;10.00;;;;;26.44;48.72;101105.72;5043993;28;45405;-79
2022/08/25 06:48:03;;;;;;;;;12.00;11.33;;;;;26.53;48.22;101101.06;5040791;28;45394;-81
2022/08/25 06:50:28;;;;;;;;;12.67;12.67;;;;;26.57;46.21;101105.13;5046018;28;45519;-82
2022/08/25 06:52:54;;;;;;;;;11.00;11.00;;;;;26.59;47.27;101094.06;5041852;28;45961;-80
2022/08/25 06:55:19;;;;;;;;;11.33;11.33;;;;;26.66;46.23;101099.63;5043607;28;45416;-80
2022/08/25 06:57:45;;;;;;;;;10.00;10.00;;;;;26.72;46.42;101100.78;5046246;28;46110;-79
2022/08/25 07:00:11;;;;;;;;;8.33;8.33;;;;;26.78;47.07;101100.91;5068590;27;45530;-79
2022/08/25 07:02:37;;;;;;;;;12.00;12.00;;;;;26.86;47.88;101104.59;5061600;28;45373;-78
2022/08/25 07:05:03;;;;;;;;;10.00;10.00;;;;;26.95;48.43;101108.97;5060051;27;45558;-79
2022/08/25 07:07:29;;;;;;;;;10.00;10.00;;;;;27.04;47.05;101098.84;5065171;28;47090;-79
2022/08/25 07:09:54;;;;;;;;;12.00;12.00;;;;;27.09;46.73;101099.13;5041540;28;45349;-80
2022/08/25 07:12:20;;;;;;;;;13.00;13.00;;;;;27.14;47.20;101096.69;5043011;28;45456;-79
2022/08/25 07:14:45;;;;;;;;;15.00;13.33;;;;;27.19;46.45;101099.75;5039624;28;45692;-76
2022/08/25 07:17:10;;;;;;;;;12.00;10.00;;;;;27.22;46.02;101099.34;5041475;28;45523;-75
2022/08/25 07:19:36;;;;;;;;;14.33;13.33;;;;;27.28;45.97;101102.38;5038244;28;45756;-75
2022/08/25 07:22:01;;;;;;;;;12.00;10.67;;;;;27.33;46.05;101110.81;5041569;28;45420;-74
2022/08/25 07:24:27;;;;;;;;;12.00;12.00;;;;;27.39;45.91;101106.53;5040321;28;45666;-75
2022/08/25 07:26:52;;;;;;;;;9.00;9.00;;;;;27.44;46.05;101106.81;5040073;28;45451;-76
2022/08/25 07:29:23;;;;;;;;;12.00;12.00;;;;;27.48;46.10;101106.25;5040660;28;45519;-72
2022/08/25 07:31:48;;;;;;;;;13.00;13.00;;;;;27.53;45.29;101113.88;5042843;28;45524;-74
2022/08/25 07:36:58;;;;;;;;;11.33;11.33;;;;;27.61;45.70;101107.50;5043892;28;45782;-76
2022/08/25 07:39:25;;;;;;;;;13.67;12.67;;;;;27.64;43.84;101106.28;5036668;28;45633;-76
2022/08/25 07:41:51;;;;;;;;;12.67;11.00;;;;;27.64;45.02;101114.47;5039304;28;45682;-77
2022/08/25 07:44:17;;;;;;;;;11.00;11.00;;;;;27.67;45.29;101111.38;5036140;28;45435;-76
2022/08/25 07:46:43;;;;;;;;;12.67;12.67;;;;;27.69;44.61;101112.03;5038996;28;46535;-76
2022/08/25 07:49:09;;;;;;;;;15.67;14.00;;;;;27.67;43.66;101106.75;5025827;28;45581;-78
2022/08/25 07:51:34;;;;;;;;;12.33;12.00;;;;;27.70;43.88;101111.84;5043517;28;45555;-74
2022/08/25 07:54:01;;;;;;;;;11.00;11.00;;;;;27.72;43.60;101108.94;5035970;28;45413;-73
2022/08/25 07:56:26;;;;;;;;;12.00;10.67;;;;;27.74;43.80;101101.38;5041355;28;46260;-78
2022/08/25 07:58:52;;;;;;;;;10.00;10.00;;;;;27.74;43.62;101104.13;5038038;28;45472;-76
2022/08/25 08:01:21;;;;;;;;;14.33;13.67;;;;;27.79;44.00;101107.13;5039113;28;45688;-77
2022/08/25 08:03:47;;;;;;;;;11.67;9.67;;;;;27.82;43.69;101100.44;5038201;28;45498;-76
2022/08/25 08:06:16;;;;;;;;;13.67;11.33;;;;;27.85;43.32;101095.47;5042501;28;45699;-73
2022/08/25 08:08:44;;;;;;;;;12.00;12.00;;;;;27.89;44.00;101095.94;5054228;28;45928;-77
2022/08/25 08:11:21;;;;;;;;;11.33;10.33;;;;;27.93;43.83;101096.41;5042785;28;45456;-78
2022/08/25 08:13:48;;;;;;;;;14.33;13.00;;;;;27.96;43.67;101090.56;5051538;28;45776;-77
2022/08/25 08:16:15;;;;;;;;;12.67;12.67;;;;;27.98;43.57;101080.31;5053042;28;46657;-77
2022/08/25 08:18:42;;;;;;;;;14.67;13.33;;;;;28.02;42.88;101090.66;5046633;28;45328;-78
2022/08/25 08:21:13;;;;;;;;;14.00;13.00;;;;;28.06;43.37;101088.38;5050297;28;45372;-78
2022/08/25 08:23:39;;;;;;;;;14.33;12.33;;;;;28.09;43.28;101095.34;5048687;28;45397;-77
2022/08/25 08:26:04;;;;;;;;;12.33;12.33;;;;;28.09;42.80;101095.34;5052751;28;46205;-77
2022/08/25 08:28:30;;;;;;;;;13.00;13.00;;;;;28.09;42.58;101087.16;5056368;28;45482;-78
2022/08/25 08:30:55;;;;;;;;;15.00;14.33;;;;;28.16;42.11;101109.94;5056108;28;45457;-80
2022/08/25 08:33:22;;;;;;;;;9.67;9.67;;;;;28.18;42.80;101109.72;5056915;28;45463;-77
2022/08/25 08:35:55;;;;;;;;;17.00;13.67;;;;;28.23;42.63;101109.97;5055135;28;45727;-78
2022/08/25 08:38:20;;;;;;;;;12.33;12.33;;;;;28.26;42.78;101120.56;5054315;28;45497;-79
2022/08/25 08:44:02;;;;;;;;;15.00;14.67;;;;;28.37;42.65;101135.59;5044352;28;45345;-76
2022/08/25 08:46:44;;;;;;;;;13.00;12.00;;;;;28.40;41.91;101122.41;5054137;28;46241;-77
2022/08/25 08:49:29;;;;;;;;;12.00;12.00;;;;;28.48;42.02;101117.88;5039954;28;45435;-76
2022/08/25 08:51:59;;;;;;;;;11.00;11.00;;;;;28.54;42.31;101108.91;5055916;28;45356;-75
2022/08/25 08:54:30;;;;;;;;;13.00;13.00;;;;;28.60;41.64;101118.22;5055196;28;46068;-77
2022/08/25 08:57:05;;;;;;;;;13.67;13.67;;;;;28.69;42.07;101119.75;5064291;28;45500;-76
2022/08/25 08:59:46;;;;;;;;;13.33;13.33;;;;;28.75;42.01;101120.88;5053244;28;45454;-75
2022/08/25 09:02:18;;;;;;;;;12.33;12.00;;;;;28.83;42.22;101118.00;5055231;28;45604;-72
2022/08/25 09:04:59;;;;;;;;;11.67;11.67;;;;;28.85;41.64;101126.00;5055800;28;45428;-74
2022/08/25 09:07:32;;;;;;;;;12.00;12.00;;;;;28.87;41.70;101124.78;5045094;28;46237;-76
2022/08/25 09:09:58;;;;;;;;;14.67;13.00;;;;;28.95;41.84;101122.97;5055728;28;45659;-76
2022/08/25 09:12:36;;;;;;;;;14.33;12.33;;;;;29.04;42.32;101130.00;5042010;28;45376;-74
2022/08/25 09:16:53;;;;;;;;;12.33;12.33;;;;;29.08;41.66;101117.63;5055341;28;45391;-73
2022/08/25 09:18:47;;;;;;;;;12.00;12.00;;;;;29.11;42.18;101116.38;5055756;28;45638;-74
2022/08/25 09:21:42;;;;;;;;;12.00;12.00;;;;;29.13;41.96;101114.28;5040054;28;45405;-74
2022/08/25 09:24:10;;;;;;;;;12.00;12.00;;;;;29.17;42.14;101110.13;5034251;28;45389;-74
2022/08/25 09:26:50;;;;;;;;;12.00;12.00;;;;;29.23;41.75;101109.34;5031626;28;46002;-75
2022/08/25 09:29:33;;;;;;;;;11.00;9.33;;;;;29.28;42.12;101108.72;5038021;28;45423;-74
2022/08/25 09:31:59;;;;;;;;;10.33;10.33;;;;;29.30;41.75;101099.28;5051081;28;45539;-74
2022/08/25 09:34:32;;;;;;;;;11.33;10.00;;;;;29.41;41.50;101107.97;5055403;28;45768;-75
2022/08/25 09:36:59;;;;;;;;;13.00;13.00;;;;;29.44;41.17;101110.31;5041948;28;45615;-74
2022/08/25 09:39:24;;;;;;;;;12.67;12.00;;;;;29.44;41.67;101113.91;5055136;28;46223;-74
2022/08/25 09:41:54;;;;;;;;;12.00;12.00;;;;;29.43;41.46;101101.25;5045337;28;49176;-73
2022/08/25 09:44:30;;;;;;;;;12.67;12.67;;;;;29.55;41.56;101107.06;5047939;28;45427;-72
2022/08/25 09:47:12;;;;;;;;;10.67;10.67;;;;;29.64;41.12;101106.91;5039610;28;45458;-73
2022/08/25 09:49:40;;;;;;;;;15.67;12.33;;;;;29.69;41.22;101099.78;5046785;28;46678;-73
2022/08/25 09:52:17;;;;;;;;;11.00;11.00;;;;;29.69;41.00;101101.66;5046524;28;45391;-73
2022/08/25 09:54:43;;;;;;;;;10.33;10.33;;;;;29.78;40.72;101096.88;5045943;28;45422;-73
2022/08/25 09:57:27;;;;;;;;;13.00;13.00;;;;;29.83;41.16;101110.78;5056367;28;45451;-73
2022/08/25 09:59:54;;;;;;;;;11.67;10.33;;;;;29.86;40.71;101107.66;5035029;28;45358;-73
2022/08/25 10:02:25;;;;;;;;;13.00;11.33;;;;;29.90;40.65;101103.47;5033300;28;45503;-74
2022/08/25 10:04:51;;;;;;;;;12.00;11.67;;;;;29.95;40.46;101100.97;5040509;28;45396;-71
2022/08/25 10:07:38;;;;;;;;;11.00;11.00;;;;;29.99;40.38;101104.13;5041296;28;45567;-73
2022/08/25 10:10:17;;;;;;;;;11.33;10.33;;;;;30.00;40.26;101099.50;5043578;28;48492;-77
2022/08/25 10:12:46;;;;;;;;;13.33;11.33;;;;;29.97;40.40;101098.88;5033388;28;45398;-73
2022/08/25 10:15:25;;;;;;;;;13.00;12.00;;;;;29.96;40.09;101090.88;5038094;28;47057;-76
2022/08/25 10:17:51;;;;;;;;;11.33;11.00;;;;;29.95;39.93;101089.16;5038014;28;45717;-73
2022/08/25 10:20:19;;;;;;;;;11.33;11.33;;;;;30.00;40.35;101104.97;5036360;28;45915;-72
2022/08/25 10:22:46;;;;;;;;;11.00;11.00;;;;;30.01;40.34;101085.63;5039471;28;45414;-74
2022/08/25 10:25:15;;;;;;;;;10.67;10.67;;;;;29.97;40.39;101085.19;5021241;28;45369;-74
2022/08/25 10:28:04;;;;;;;;;12.33;12.33;;;;;29.95;40.16;101084.53;5033426;28;45503;-74
2022/08/25 10:30:53;;;;;;;;;16.33;15.67;;;;;29.93;40.76;101077.59;5032809;28;47267;-75
2022/08/25 10:33:39;;;;;;;;;10.33;10.33;;;;;29.89;40.33;101073.56;5027379;28;45410;-75
2022/08/25 10:36:26;;;;;;;;;13.67;12.00;;;;;29.90;40.44;101067.91;5035872;28;45424;-78
2022/08/25 10:39:00;;;;;;;;;11.00;11.00;;;;;29.90;40.16;101058.81;5046311;28;45515;-76
2022/08/25 10:42:00;;;;;;;;;13.33;13.33;;;;;29.90;40.44;101062.41;5044760;28;45447;-76
2022/08/25 10:47:40;;;;;;;;;13.33;11.67;;;;;29.89;40.30;101055.25;5053040;28;45444;-76
2022/08/25 10:50:30;;;;;;;;;11.00;11.00;;;;;29.89;40.45;101052.53;5044423;28;45353;-77
2022/08/25 10:53:20;;;;;;;;;11.67;11.67;;;;;29.90;40.13;101058.81;5038122;28;46621;-78
2022/08/25 10:55:56;;;;;;;;;11.33;11.33;;;;;29.92;40.14;101063.03;5037694;28;45692;-78
2022/08/25 10:58:21;;;;;;;;;14.00;12.67;;;;;29.92;39.82;101064.97;5041349;28;45728;-78
2022/08/25 11:01:09;;;;;;;;;12.00;12.00;;;;;29.92;39.87;101048.53;5035395;28;45491;-77
2022/08/25 11:03:48;;;;;;;;;10.33;10.33;;;;;29.97;39.71;101054.25;5037934;28;46291;-76
2022/08/25 11:06:26;;;;;;;;;13.33;11.00;;;;;30.03;39.49;101049.84;5036969;28;45531;-73
2022/08/25 11:08:59;;;;;;;;;13.67;13.33;;;;;30.11;39.78;101060.63;5041960;28;45348;-73
2022/08/25 11:11:31;;;;;;;;;13.00;11.00;;;;;30.09;39.78;101060.78;5036534;28;45413;-73
2022/08/25 11:14:22;;;;;;;;;10.00;10.00;;;;;30.06;39.68;101057.63;5039906;28;46327;-75
2022/08/25 11:17:00;;;;;;;;;13.00;13.00;;;;;30.05;39.43;101056.81;5036003;28;45537;-73
2022/08/25 11:19:38;;;;;;;;;16.33;13.00;;;;;30.04;39.39;101062.47;5041697;28;45618;-73
2022/08/25 11:22:08;;;;;;;;;16.00;16.00;;;;;30.03;39.35;101053.41;5044657;28;45566;-73
2022/08/25 11:24:53;;;;;;;;;14.67;14.67;;;;;30.02;38.72;101056.34;5044225;28;45416;-73
2022/08/25 11:27:31;;;;;;;;;14.67;14.67;;;;;29.98;39.21;101061.41;5035519;28;45432;-73
2022/08/25 11:30:10;;;;;;;;;15.33;13.33;;;;;29.94;39.26;101066.44;5047020;28;45401;-73
2022/08/25 11:32:37;;;;;;;;;15.00;13.00;;;;;29.89;39.11;101068.94;5059227;28;45356;-73
2022/08/25 11:35:09;;;;;;;;;14.00;13.67;;;;;29.88;39.39;101070.00;5057075;28;45458;-73
2022/08/25 11:37:44;;;;;;;;;13.33;13.33;;;;;29.84;40.05;101064.06;5047636;28;45807;-73
2022/08/25 11:40:30;;;;;;;;;16.67;15.33;;;;;29.83;39.66;101065.13;5052672;28;45430;-73
2022/08/25 11:43:14;;;;;;;;;16.00;14.33;;;;;29.81;39.96;101064.50;5042458;28;45759;-73
2022/08/25 11:46:18;;;;;;;;;9.33;9.33;;;;;29.75;39.70;101061.72;5038677;28;46277;-73
2022/08/25 11:48:43;;;;;;;;;13.33;13.33;;;;;29.44;40.08;101064.69;5027365;28;45551;-73
2022/08/25 11:51:25;;;;;;;;;15.00;15.00;;;;;29.20;40.67;101068.75;5042463;28;45443;-73
2022/08/25 11:54:26;;;;;;;;;16.33;16.00;;;;;28.96;41.10;101062.66;5041302;28;45525;-73
2022/08/25 11:56:56;;;;;;;;;13.67;13.67;;;;;28.83;41.12;101067.97;5039389;28;46007;-74
2022/08/25 11:59:50;;;;;;;;;14.00;14.00;;;;;28.69;41.55;101059.66;5048980;28;45460;-75
2022/08/25 12:02:35;;;;;;;;;13.00;12.67;;;;;28.57;41.92;101053.88;5050623;28;45507;-75
2022/08/25 12:05:05;;;;;;;;;17.00;17.00;;;;;28.53;41.90;101061.63;5045473;28;45500;-74
2022/08/25 12:10:49;;;;;;;;;15.33;15.33;;;;;28.47;42.19;101051.50;4927975;28;45553;-76
2022/08/25 12:13:38;;;;;;;;;14.00;14.00;;;;;28.45;41.76;101058.19;4932543;28;45518;-77
2022/08/25 12:16:04;;;;;;;;;15.33;15.33;;;;;28.44;42.38;101051.06;4927160;28;45574;-76
2022/08/25 12:18:29;;;;;;;;;15.00;14.33;;;;;28.43;42.46;101061.13;4930624;28;45897;-74
2022/08/25 12:20:55;;;;;;;;;15.00;15.00;;;;;28.43;42.49;101052.94;4928870;28;45495;-75
2022/08/25 12:23:42;;;;;;;;;14.67;14.67;;;;;28.43;43.00;101052.94;4925103;28;45460;-76
2022/08/25 12:26:30;;;;;;;;;16.00;16.00;;;;;28.47;42.91;101046.03;4931944;28;45555;-74
2022/08/25 12:29:07;;;;;;;;;15.00;13.00;;;;;28.45;43.03;101045.41;4934354;28;45566;-75
2022/08/25 12:31:58;;;;;;;;;14.33;14.33;;;;;28.49;42.28;101045.84;4928672;28;45553;-74
2022/08/25 12:34:35;;;;;;;;;13.33;13.33;;;;;28.48;42.87;101049.63;4933477;28;45499;-74
2022/08/25 12:37:10;;;;;;;;;13.00;13.00;;;;;28.48;42.29;101057.81;4927951;28;45433;-74
2022/08/25 12:39:44;;;;;;;;;15.00;14.67;;;;;28.49;42.74;101048.59;4931109;28;45905;-73
2022/08/25 12:42:28;;;;;;;;;14.00;14.00;;;;;28.50;42.14;101045.66;4928031;28;45482;-74
2022/08/25 12:45:18;;;;;;;;;14.00;14.00;;;;;28.52;42.68;101039.97;4933067;28;45557;-75
2022/08/25 12:47:46;;;;;;;;;12.33;12.33;;;;;28.50;42.78;101039.34;5038829;28;45560;-73
2022/08/25 12:50:35;;;;;;;;;13.00;13.00;;;;;28.50;42.71;101056.59;5036690;28;46876;-72
2022/08/25 12:53:16;;;;;;;;;11.67;11.67;;;;;28.49;42.65;101043.94;5036556;28;45582;-72
2022/08/25 12:55:53;;;;;;;;;6.33;6.33;;;;;28.46;42.81;101041.63;5035486;28;45620;-72
2022/08/25 12:58:19;;;;;;;;;11.67;11.67;;;;;28.43;42.69;101046.59;5040339;28;45563;-72
2022/08/25 13:01:00;;;;;;;;;11.67;11.67;;;;;28.42;42.97;101040.31;5038608;28;45546;-74
2022/08/25 13:03:59;;;;;;;;;11.00;11.00;;;;;28.40;43.67;101039.66;5049714;28;46727;-73
2022/08/25 13:06:27;;;;;;;;;15.33;13.33;;;;;28.39;43.40;101035.25;5055544;28;45379;-72
2022/08/25 13:09:14;;;;;;;;;14.50;14.50;;;;;28.40;43.45;101034.19;5058369;28;45373;-73
2022/08/25 13:11:55;;;;;;;;;14.33;14.33;;;;;28.39;44.04;101032.50;5047875;28;46073;-72
2022/08/25 13:14:35;;;;;;;;;14.00;12.00;;;;;28.35;44.27;101029.34;5052208;28;45429;-73
2022/08/25 13:17:00;;;;;;;;;12.67;12.67;;;;;28.36;44.54;101028.28;5038466;28;45631;-73
2022/08/25 13:19:27;;;;;;;;;13.33;12.00;;;;;28.40;44.11;101023.28;5032509;28;45351;-72
2022/08/25 13:21:54;;;;;;;;;11.33;11.33;;;;;28.39;44.93;101029.78;5043120;28;46495;-72
2022/08/25 13:24:32;;;;;;;;;14.00;14.00;;;;;28.41;44.92;101034.00;5040960;28;45485;-73
2022/08/25 13:27:08;;;;;;;;;13.67;13.33;;;;;28.37;44.22;101012.75;5034553;28;45526;-73
2022/08/25 13:29:48;;;;;;;;;12.33;12.33;;;;;28.42;44.15;101021.22;5036887;28;45345;-73
2022/08/25 13:32:23;;;;;;;;;13.00;13.00;;;;;28.41;44.70;101012.16;5038887;28;45894;-73
2022/08/25 13:34:49;;;;;;;;;13.00;13.00;;;;;28.42;44.85;101018.47;5047048;28;45373;-74
2022/08/25 13:37:26;;;;;;;;;11.67;11.67;;;;;28.44;45.02;101007.38;5050373;28;45322;-73
2022/08/25 13:40:09;;;;;;;;;12.00;12.00;;;;;28.45;44.31;101015.38;5041642;28;45500;-73
2022/08/25 13:42:36;;;;;;;;;15.00;13.67;;;;;28.45;45.01;100998.13;5026383;28;46511;-72
2022/08/25 13:45:04;;;;;;;;;14.00;14.00;;;;;28.46;45.07;100999.81;5053189;28;45373;-73
2022/08/25 13:47:35;;;;;;;;;13.67;13.67;;;;;28.48;45.50;101006.78;5053761;28;45330;-72
2022/08/25 13:50:20;;;;;;;;;13.00;13.00;;;;;28.52;44.80;101002.63;5039113;28;45498;-73
2022/08/25 13:52:49;;;;;;;;;11.00;11.00;;;;;28.53;45.12;101004.28;5042617;28;46355;-72
2022/08/25 13:55:23;;;;;;;;;12.00;12.00;;;;;28.56;45.25;101004.97;5046049;28;45695;-72
2022/08/25 13:57:50;;;;;;;;;14.00;14.00;;;;;28.50;44.81;100991.06;5044438;28;45534;-72
2022/08/25 14:00:45;;;;;;;;;11.00;11.00;;;;;28.58;45.01;101002.88;5045201;28;45333;-72
2022/08/25 14:03:30;;;;;;;;;12.67;12.67;;;;;28.61;45.24;101005.22;5045366;28;45694;-71
2022/08/25 14:06:04;;;;;;;;;12.33;11.33;;;;;28.61;44.68;101011.50;5048258;28;45470;-71
2022/08/25 14:08:59;;;;;;;;;11.00;11.00;;;;;28.60;45.32;101003.53;5053313;28;45380;-71
2022/08/25 14:11:29;;;;;;;;;12.00;12.00;;;;;28.61;44.67;101008.78;5046495;28;45592;-73
2022/08/25 14:14:08;;;;;;;;;10.33;9.00;;;;;28.60;44.69;101006.25;5051234;28;45552;-72
2022/08/25 14:16:58;;;;;;;;;9.67;9.67;;;;;28.59;45.47;101005.41;5049060;28;45730;-72
2022/08/25 14:19:24;;;;;;;;;11.00;11.00;;;;;28.60;45.21;101012.53;5056622;28;45414;-72
2022/08/25 14:21:52;;;;;;;;;9.00;8.67;;;;;28.60;45.37;101011.72;5037542;28;45321;-72
2022/08/25 14:24:20;;;;;;;;;12.00;12.00;;;;;28.61;44.80;101005.22;5054501;28;46030;-72
2022/08/25 14:26:46;;;;;;;;;10.00;10.00;;;;;28.60;45.44;101003.53;5021615;28;45489;-73
2022/08/25 14:29:13;;;;;;;;;12.00;12.00;;;;;28.56;45.38;100994.88;5039426;28;45888;-72
2022/08/25 14:31:42;;;;;;;;;12.33;11.00;;;;;28.59;45.34;101010.88;5041740;28;45541;-73
2022/08/25 14:34:31;;;;;;;;;11.00;11.00;;;;;28.56;45.22;100999.50;5038153;28;45519;-73
2022/08/25 14:36:58;;;;;;;;;11.00;11.00;;;;;28.51;45.59;100998.19;5042879;28;45551;-73
2022/08/25 14:39:24;;;;;;;;;11.00;11.00;;;;;28.51;45.20;101005.53;5043148;28;45341;-73
2022/08/25 14:41:50;;;;;;;;;12.00;8.67;;;;;28.49;45.70;101003.00;5036546;28;45754;-73
2022/08/25 14:44:16;;;;;;;;;13.33;12.33;;;;;28.49;45.46;101008.47;5043120;28;46254;-71
2022/08/25 14:47:08;;;;;;;;;11.00;11.00;;;;;28.48;46.17;101009.50;5027191;28;45472;-72
2022/08/25 14:49:39;;;;;;;;;11.33;11.33;;;;;28.39;46.13;101000.59;5045557;28;45360;-72
2022/08/25 14:52:19;;;;;;;;;12.00;10.33;;;;;28.49;45.67;101003.00;5043337;28;45689;-71
2022/08/25 14:54:44;;;;;;;;;10.67;10.33;;;;;28.44;45.41;100991.81;5069557;28;46741;-74
2022/08/25 14:57:10;;;;;;;;;11.00;9.67;;;;;28.50;45.33;101001.13;5038106;28;45431;-72
2022/08/25 14:59:35;;;;;;;;;14.00;12.00;;;;;28.47;45.65;100985.13;5050884;28;45420;-73
2022/08/25 15:02:00;;;;;;;;;9.33;9.33;;;;;28.50;46.03;100996.53;5052565;28;45514;-71
2022/08/25 15:04:28;;;;;;;;;13.00;13.00;;;;;28.59;45.64;101016.31;5056294;28;46297;-71
2022/08/25 15:06:59;;;;;;;;;11.00;9.33;;;;;28.65;46.04;101014.72;5052279;28;45451;-73
2022/08/25 15:09:25;;;;;;;;;11.33;11.33;;;;;28.66;45.61;101024.59;5048086;28;45538;-71
2022/08/25 15:11:53;;;;;;;;;12.67;11.67;;;;;28.65;46.38;101021.00;5047813;28;45591;-72
2022/08/25 15:14:22;;;;;;;;;11.00;11.00;;;;;28.67;46.08;101027.13;5050086;28;47058;-73
2022/08/25 15:16:52;;;;;;;;;14.33;13.00;;;;;28.70;46.18;101033.22;5052477;28;45499;-82
2022/08/25 15:19:22;;;;;;;;;10.67;10.67;;;;;28.71;46.31;101033.03;5044834;28;45384;-77
2022/08/25 15:21:48;;;;;;;;;10.33;10.00;;;;;28.75;46.91;101028.88;5046630;28;45776;-77
2022/08/25 15:24:15;;;;;;;;;10.00;10.00;;;;;28.76;47.04;101032.41;5046097;28;45453;-74
2022/08/25 15:27:02;;;;;;;;;10.67;9.33;;;;;28.78;46.70;101039.38;5042605;28;45499;-73
2022/08/25 15:29:30;;;;;;;;;9.67;9.67;;;;;28.82;46.52;101036.25;5046313;28;45495;-73
2022/08/25 15:31:57;;;;;;;;;9.00;9.00;;;;;28.81;46.50;101035.41;5035423;28;45523;-73
2022/08/25 15:34:23;;;;;;;;;13.00;12.00;;;;;28.82;46.02;101039.00;5036856;28;46745;-72
2022/08/25 15:36:49;;;;;;;;;11.67;10.00;;;;;28.78;45.92;101031.19;5042085;28;45463;-73
2022/08/25 15:39:15;;;;;;;;;11.00;11.00;;;;;28.83;45.69;101043.41;5039603;28;45472;-72
2022/08/25 15:41:41;;;;;;;;;8.00;8.00;;;;;28.81;45.88;101035.41;5037698;28;45382;-72
2022/08/25 15:44:09;;;;;;;;;9.33;9.33;;;;;28.80;45.93;101031.00;5036296;28;45493;-72
2022/08/25 15:46:35;;;;;;;;;11.00;10.67;;;;;28.83;45.95;101041.53;5036861;28;45430;-73
2022/08/25 15:49:00;;;;;;;;;10.33;10.33;;;;;28.83;45.66;101036.06;5037030;28;45599;-73
2022/08/25 15:51:27;;;;;;;;;9.33;9.00;;;;;28.84;45.91;101040.47;5034170;28;45302;-72
2022/08/25 15:53:53;;;;;;;;;7.33;7.33;;;;;28.85;45.70;101041.34;5038338;28;46554;-74
2022/08/25 15:56:18;;;;;;;;;8.33;8.33;;;;;28.89;45.60;101045.41;5035607;28;45451;-73
2022/08/25 15:58:45;;;;;;;;;10.67;9.00;;;;;28.92;45.98;101053.19;5038020;28;45441;-72
2022/08/25 16:01:19;;;;;;;;;11.00;10.00;;;;;28.93;46.02;101049.41;5016869;28;45547;-72
2022/08/25 16:03:45;;;;;;;;;9.67;9.33;;;;;28.96;46.07;101054.47;5039380;28;46256;-74
2022/08/25 16:06:11;;;;;;;;;10.00;10.00;;;;;28.95;45.92;101055.53;5037005;28;45426;-74
2022/08/25 16:08:37;;;;;;;;;11.67;11.67;;;;;28.93;45.48;101050.25;5036230;28;45397;-74
2022/08/25 16:11:04;;;;;;;;;9.00;9.00;;;;;28.95;45.17;101052.78;5035596;28;45744;-75
2022/08/25 16:13:29;;;;;;;;;8.33;8.33;;;;;28.97;45.93;101049.88;5042667;28;47708;-75
2022/08/25 16:15:55;;;;;;;;;13.33;11.33;;;;;28.95;45.73;101041.88;5038503;28;45713;-75
2022/08/25 16:18:22;;;;;;;;;9.00;8.67;;;;;28.98;45.20;101048.81;5037294;28;45464;-75
2022/08/25 16:20:48;;;;;;;;;8.67;8.67;;;;;28.95;45.34;101047.34;5037630;28;45504;-74
2022/08/25 16:23:16;;;;;;;;;9.33;9.33;;;;;28.95;45.39;101050.06;5040316;28;46616;-73
2022/08/25 16:25:43;;;;;;;;;8.00;8.00;;;;;28.96;45.25;101043.56;5037925;28;45450;-73
2022/08/25 16:28:11;;;;;;;;;8.67;8.00;;;;;29.00;45.14;101041.25;5038808;28;46138;-72
2022/08/25 16:30:38;;;;;;;;;10.00;8.67;;;;;28.96;45.36;101040.81;5040202;28;45484;-74
2022/08/25 16:33:05;;;;;;;;;7.33;7.33;;;;;28.97;45.48;101042.50;5017842;28;46610;-76
2022/08/25 16:35:31;;;;;;;;;10.00;8.33;;;;;28.96;45.80;101043.56;5051635;28;45578;-77
2022/08/25 16:37:56;;;;;;;;;9.00;9.00;;;;;28.96;46.10;101043.56;5052736;28;45544;-76
2022/08/25 16:40:24;;;;;;;;;7.33;7.33;;;;;28.95;45.98;101049.22;5050370;28;45604;-76
2022/08/25 16:42:51;;;;;;;;;9.33;8.00;;;;;28.91;46.27;101055.09;5054425;28;46305;-76
2022/08/25 16:45:17;;;;;;;;;8.33;8.33;;;;;28.92;47.12;101061.38;5041936;28;45457;-75
2022/08/25 16:47:42;;;;;;;;;7.33;7.33;;;;;28.90;46.52;101063.47;5053518;28;45485;-75
2022/08/25 16:50:08;;;;;;;;;9.00;9.00;;;;;28.89;47.25;101068.06;5050662;28;45459;-79
2022/08/25 16:55:17;;;;;;;;;8.33;7.00;;;;;28.91;47.68;101068.75;5053587;28;45797;-73
2022/08/25 16:57:49;;;;;;;;;7.00;7.00;;;;;28.95;47.67;101073.78;5049657;28;45435;-74
2022/08/25 17:00:22;;;;;;;;;7.00;7.00;;;;;28.97;47.10;101078.00;5053663;28;45538;-74
2022/08/25 17:02:50;;;;;;;;;7.00;7.00;;;;;28.96;47.74;101076.34;5049903;28;46107;-74
2022/08/25 17:05:16;;;;;;;;;8.33;7.00;;;;;29.00;47.30;101076.78;5047478;28;45361;-75
2022/08/25 17:07:42;;;;;;;;;5.33;5.00;;;;;29.01;47.72;101084.78;5042755;28;45881;-76
2022/08/25 17:10:08;;;;;;;;;6.00;6.00;;;;;29.02;47.82;101081.00;5055361;28;45557;-76
2022/08/25 17:12:33;;;;;;;;;6.67;6.33;;;;;29.01;47.78;101073.03;5035490;28;47718;-77
2022/08/25 17:14:59;;;;;;;;;6.00;6.00;;;;;29.02;47.83;101082.91;5053651;28;45429;-75
2022/08/25 17:17:25;;;;;;;;;6.33;6.33;;;;;29.08;46.64;101079.38;5051459;28;45451;-73
2022/08/25 17:19:51;;;;;;;;;9.67;9.67;;;;;29.26;45.66;101086.25;5039287;28;45432;-73
2022/08/25 17:22:17;;;;;;;;;8.33;8.33;;;;;29.43;45.77;101084.03;5041536;28;46085;-72
2022/08/25 17:24:43;;;;;;;;;8.67;8.67;;;;;29.60;45.77;101087.31;5048526;28;45427;-73
2022/08/25 17:27:09;;;;;;;;;8.33;7.00;;;;;29.74;45.41;101092.88;5048311;28;45452;-73
2022/08/25 17:29:36;;;;;;;;;6.67;6.67;;;;;29.87;45.04;101087.44;5042037;28;45358;-73
2022/08/25 17:32:02;;;;;;;;;7.00;7.00;;;;;29.99;44.54;101090.44;5051939;28;46024;-74
2022/08/25 17:34:27;;;;;;;;;7.33;7.33;;;;;30.10;44.65;101097.22;5053767;28;45402;-73
2022/08/25 17:36:53;;;;;;;;;7.00;7.00;;;;;30.17;44.44;101089.94;5054180;28;45400;-73
2022/08/25 17:39:19;;;;;;;;;11.00;8.00;;;;;30.24;44.15;101093.50;5055096;28;45413;-74
2022/08/25 17:41:44;;;;;;;;;7.00;7.00;;;;;30.31;43.55;101099.00;5054269;28;45512;-73
2022/08/25 17:44:10;;;;;;;;;8.33;6.33;;;;;30.38;43.46;101104.50;5044922;28;45334;-73
2022/08/25 17:46:36;;;;;;;;;6.00;5.00;;;;;30.43;43.33;101109.34;5046460;28;45394;-74
2022/08/25 17:49:03;;;;;;;;;6.67;6.67;;;;;30.45;43.37;101116.31;5054883;28;45851;-73